createdAt,value
2023-01-27T00:02:06.402Z,100793.50
2023-01-27T00:04:51.374Z,100790.70
2023-01-27T00:07:36.406Z,100789.99
2023-01-27T00:10:21.222Z,100786.48
2023-01-27T00:13:24.893Z,100782.45
2023-01-27T00:16:10.204Z,100778.60
2023-01-27T00:18:54.929Z,100780.17
2023-01-27T00:21:58.616Z,100777.21
2023-01-27T00:24:43.925Z,100782.13
2023-01-27T00:27:29.133Z,100781.83
2023-01-27T00:30:14.575Z,100782.36
2023-01-27T00:33:18.293Z,100787.29
2023-01-27T00:36:05.918Z,100791.34
2023-01-27T00:38:50.819Z,100794.50
2023-01-27T00:41:35.883Z,100790.65
2023-01-27T00:44:20.609Z,100792.57
2023-01-27T00:47:06.244Z,100795.57
2023-01-27T00:49:51.734Z,100799.77
2023-01-27T00:52:36.868Z,100794.87
2023-01-27T00:55:21.608Z,100798.20
2023-01-27T00:58:06.719Z,100801.38
2023-01-27T01:00:55.971Z,100801.20
2023-01-27T01:03:41.520Z,100804.86
2023-01-27T01:06:27.602Z,100804.30
2023-01-27T01:09:12.794Z,100802.90
2023-01-27T01:11:57.711Z,100807.45
2023-01-27T01:14:42.643Z,100805.70
2023-01-27T01:17:27.597Z,100808.49
2023-01-27T01:20:12.909Z,100809.37
2023-01-27T01:22:58.090Z,100804.45
2023-01-27T01:25:43.039Z,100806.38
2023-01-27T01:28:28.074Z,100802.88
2023-01-27T01:31:17.811Z,100798.33
2023-01-27T01:34:03.391Z,100796.95
2023-01-27T01:36:48.564Z,100795.20
2023-01-27T01:39:33.628Z,100796.45
2023-01-27T01:42:18.544Z,100797.52
2023-01-27T01:45:43.533Z,100797.70
2023-01-27T01:48:48.014Z,100795.27
2023-01-27T01:51:59.910Z,100796.13
2023-01-27T01:54:48.358Z,100800.17
2023-01-27T01:57:36.860Z,100802.80
2023-01-27T02:00:21.949Z,100802.45
2023-01-27T02:03:07.419Z,100802.09
2023-01-27T02:05:53.915Z,100801.58
2023-01-27T02:08:41.826Z,100797.89
2023-01-27T02:11:27.922Z,100798.41
2023-01-27T02:14:14.286Z,100806.29
2023-01-27T02:16:59.796Z,100801.00
2023-01-27T02:20:35.895Z,100805.17
2023-01-27T02:23:36.207Z,100805.67
2023-01-27T02:26:35.906Z,100803.06
2023-01-27T02:29:22.220Z,100803.41
2023-01-27T02:32:07.425Z,100804.98
2023-01-27T02:34:55.076Z,100802.71
2023-01-27T02:37:40.082Z,100806.53
2023-01-27T02:40:25.351Z,100805.48
2023-01-27T02:43:10.045Z,100809.00
2023-01-27T02:45:55.031Z,100806.91
2023-01-27T02:48:39.862Z,100809.88
2023-01-27T02:51:24.667Z,100810.75
2023-01-27T02:54:09.696Z,100810.95
2023-01-27T02:56:54.837Z,100808.17
2023-01-27T02:59:39.813Z,100809.41
2023-01-27T03:02:29.789Z,100809.21
2023-01-27T03:05:15.309Z,100806.23
2023-01-27T03:08:00.335Z,100805.49
2023-01-27T03:10:49.980Z,100809.87
2023-01-27T03:13:36.264Z,100813.55
2023-01-27T03:16:39.886Z,100811.28
2023-01-27T03:19:26.122Z,100811.64
2023-01-27T03:22:11.113Z,100818.13
2023-01-27T03:24:56.256Z,100819.71
2023-01-27T03:27:41.322Z,100818.29
2023-01-27T03:30:27.564Z,100816.71
2023-01-27T03:33:12.691Z,100815.83
2023-01-27T03:36:16.250Z,100813.19
2023-01-27T03:39:20.375Z,100810.89
2023-01-27T03:42:24.000Z,100811.73
2023-01-27T03:45:28.223Z,100810.84
2023-01-27T03:48:13.803Z,100809.23
2023-01-27T03:50:59.640Z,100802.04
2023-01-27T03:53:45.046Z,100808.50
2023-01-27T03:56:30.299Z,100811.28
2023-01-27T03:59:15.103Z,100809.84
2023-01-27T04:02:19.708Z,100808.77
2023-01-27T04:05:24.033Z,100806.70
2023-01-27T04:08:09.126Z,100802.34
2023-01-27T04:11:12.589Z,100802.71
2023-01-27T04:14:00.598Z,100803.27
2023-01-27T04:16:46.662Z,100801.00
2023-01-27T04:19:32.685Z,100801.89
2023-01-27T04:22:17.763Z,100801.88
2023-01-27T04:25:03.371Z,100802.90
2023-01-27T04:27:48.647Z,100805.51
2023-01-27T04:30:34.234Z,100805.31
2023-01-27T04:33:18.989Z,100805.64
2023-01-27T04:36:04.221Z,100808.08
2023-01-27T04:38:49.117Z,100809.30
2023-01-27T04:41:34.256Z,100809.81
2023-01-27T04:44:19.623Z,100811.37
2023-01-27T04:47:05.228Z,100813.99
2023-01-27T04:49:50.495Z,100813.12
2023-01-27T04:52:35.437Z,100815.55
2023-01-27T04:55:20.491Z,100817.65
2023-01-27T04:58:05.470Z,100820.44
2023-01-27T05:00:50.455Z,100822.20
2023-01-27T05:03:35.426Z,100821.38
2023-01-27T05:06:21.137Z,100827.02
2023-01-27T05:09:06.063Z,100820.92
2023-01-27T05:11:51.018Z,100823.04
2023-01-27T05:14:35.985Z,100830.97
2023-01-27T05:17:20.965Z,100835.89
2023-01-27T05:20:06.130Z,100835.34
2023-01-27T05:22:51.420Z,100835.33
2023-01-27T05:25:36.469Z,100835.66
2023-01-27T05:28:21.510Z,100839.50
2023-01-27T05:31:15.257Z,100842.29
2023-01-27T05:34:01.051Z,100841.77
2023-01-27T05:36:46.126Z,100845.91
2023-01-27T05:39:30.828Z,100842.21
2023-01-27T05:42:16.019Z,100848.33
2023-01-27T05:45:01.033Z,100851.84
2023-01-27T05:47:50.305Z,100856.41
2023-01-27T05:50:35.301Z,100852.73
2023-01-27T05:53:20.723Z,100855.04
2023-01-27T05:56:06.110Z,100854.04
2023-01-27T05:58:53.594Z,100857.05
2023-01-27T06:01:38.984Z,100860.95
2023-01-27T06:04:23.949Z,100861.86
2023-01-27T06:07:08.867Z,100859.41
2023-01-27T06:09:53.911Z,100860.10
2023-01-27T06:12:38.961Z,100867.64
2023-01-27T06:15:23.940Z,100869.70
2023-01-27T06:18:08.976Z,100869.52
2023-01-27T06:20:57.255Z,100876.34
2023-01-27T06:23:42.289Z,100884.91
2023-01-27T06:26:27.182Z,100888.73
2023-01-27T06:29:11.922Z,100887.83
2023-01-27T06:31:56.812Z,100891.67
2023-01-27T06:34:41.641Z,100892.02
2023-01-27T06:37:28.929Z,100894.45
2023-01-27T06:40:14.391Z,100893.36
2023-01-27T06:42:59.681Z,100896.83
2023-01-27T06:45:44.313Z,100900.52
2023-01-27T06:48:29.442Z,100899.86
2023-01-27T06:51:14.558Z,100899.86
2023-01-27T06:53:59.619Z,100904.94
2023-01-27T06:56:44.523Z,100901.61
2023-01-27T06:59:29.462Z,100900.38
2023-01-27T07:02:14.454Z,100901.62
2023-01-27T07:04:59.660Z,100905.31
2023-01-27T07:07:45.130Z,100901.86
2023-01-27T07:10:30.451Z,100905.08
2023-01-27T07:13:15.455Z,100903.00
2023-01-27T07:16:00.906Z,100905.13
2023-01-27T07:18:46.105Z,100904.95
2023-01-27T07:21:31.026Z,100899.34
2023-01-27T07:24:16.335Z,100899.89
2023-01-27T07:27:01.268Z,100904.10
2023-01-27T07:29:46.091Z,100895.52
2023-01-27T07:32:51.790Z,100898.69
2023-01-27T07:35:38.291Z,100900.79
2023-01-27T07:38:23.194Z,100900.63
2023-01-27T07:41:08.555Z,100903.25
2023-01-27T07:43:53.363Z,100903.81
2023-01-27T07:46:38.529Z,100907.55
2023-01-27T07:49:25.093Z,100912.29
2023-01-27T07:52:11.061Z,100908.30
2023-01-27T07:54:56.077Z,100910.12
2023-01-27T07:57:41.197Z,100909.42
2023-01-27T08:00:27.675Z,100911.23
2023-01-27T08:03:24.850Z,100911.63
2023-01-27T08:06:11.303Z,100908.98
2023-01-27T08:08:56.198Z,100909.55
2023-01-27T08:11:41.189Z,100905.16
2023-01-27T08:14:26.149Z,100908.31
2023-01-27T08:17:11.228Z,100914.43
2023-01-27T08:19:56.208Z,100917.92
2023-01-27T08:22:41.208Z,100916.66
2023-01-27T08:25:26.402Z,100918.06
2023-01-27T08:28:11.091Z,100921.36
2023-01-27T08:31:03.625Z,100923.98
2023-01-27T08:33:53.649Z,100924.33
2023-01-27T08:36:41.347Z,100926.43
2023-01-27T08:39:26.738Z,100928.71
2023-01-27T08:42:12.423Z,100931.17
2023-01-27T08:44:57.559Z,100932.04
2023-01-27T08:47:42.343Z,100938.01
2023-01-27T08:50:28.843Z,100939.41
2023-01-27T08:53:13.702Z,100939.42
2023-01-27T08:56:01.724Z,100940.83
2023-01-27T08:58:47.756Z,100938.21
2023-01-27T09:01:32.705Z,100942.45
2023-01-27T09:04:17.543Z,100940.39
2023-01-27T09:07:02.322Z,100943.72
2023-01-27T09:09:48.115Z,100944.44
2023-01-27T09:12:33.495Z,100946.52
2023-01-27T09:15:18.461Z,100951.45
2023-01-27T09:18:06.644Z,100949.35
2023-01-27T09:20:51.599Z,100958.10
2023-01-27T09:23:36.529Z,100963.70
2023-01-27T09:26:21.727Z,100965.63
2023-01-27T09:29:06.692Z,100963.33
2023-01-27T09:31:52.122Z,100967.20
2023-01-27T09:34:37.041Z,100964.19
2023-01-27T09:37:23.348Z,100968.23
2023-01-27T09:40:18.243Z,100967.00
2023-01-27T09:43:27.560Z,100972.28
2023-01-27T09:46:22.833Z,100977.58
2023-01-27T09:49:20.260Z,100982.85
2023-01-27T09:52:32.821Z,100985.00
2023-01-27T09:55:39.108Z,100987.33
2023-01-27T09:58:37.275Z,100984.71
2023-01-27T10:01:31.665Z,100979.84
2023-01-27T10:04:55.565Z,100978.29
2023-01-27T10:07:53.567Z,100975.33
2023-01-27T10:11:00.604Z,100970.80
2023-01-27T10:14:06.687Z,100966.77
2023-01-27T10:16:54.785Z,100961.52
2023-01-27T10:19:54.896Z,100961.20
2023-01-27T10:22:46.302Z,100960.31
2023-01-27T10:26:04.572Z,100961.91
2023-01-27T10:28:57.643Z,100963.30
2023-01-27T10:32:03.397Z,100964.02
2023-01-27T10:35:11.908Z,100964.36
2023-01-27T10:38:23.433Z,100958.19
2023-01-27T10:41:35.855Z,100954.16
2023-01-27T10:44:58.071Z,100956.79
2023-01-27T10:48:07.831Z,100959.95
2023-01-27T10:51:12.978Z,100956.80
2023-01-27T10:54:09.291Z,100959.09
2023-01-27T10:56:59.082Z,100959.78
2023-01-27T11:00:10.842Z,100962.04
2023-01-27T11:03:04.842Z,100963.76
2023-01-27T11:05:57.731Z,100967.27
2023-01-27T11:08:51.104Z,100963.41
2023-01-27T11:11:45.374Z,100962.89
2023-01-27T11:14:31.901Z,100962.19
2023-01-27T11:17:19.020Z,100965.17
2023-01-27T11:20:12.413Z,100964.47
2023-01-27T11:23:12.313Z,100963.05
2023-01-27T11:26:03.575Z,100965.30
2023-01-27T11:29:03.958Z,100957.22
2023-01-27T11:32:01.279Z,100961.44
2023-01-27T11:35:05.421Z,100957.73
2023-01-27T11:37:51.639Z,100958.73
2023-01-27T11:40:37.779Z,100958.90
2023-01-27T11:43:25.999Z,100958.52
2023-01-27T11:46:19.499Z,100956.96
2023-01-27T11:49:06.160Z,100953.83
2023-01-27T11:51:51.445Z,100955.05
2023-01-27T11:54:41.409Z,100956.63
2023-01-27T11:57:27.587Z,100957.69
2023-01-27T12:00:24.596Z,100958.04
2023-01-27T12:03:15.606Z,100962.95
2023-01-27T12:06:05.451Z,100959.73
2023-01-27T12:08:50.873Z,100959.56
2023-01-27T12:11:35.639Z,100959.77
2023-01-27T12:14:22.937Z,100953.98
2023-01-27T12:17:11.261Z,100955.74
2023-01-27T12:20:00.242Z,100953.13
2023-01-27T12:22:48.875Z,100951.90
2023-01-27T12:25:43.819Z,100947.67
2023-01-27T12:28:34.586Z,100946.96
2023-01-27T12:31:26.456Z,100943.06
2023-01-27T12:34:32.209Z,100942.68
2023-01-27T12:37:31.688Z,100946.15
2023-01-27T12:40:21.663Z,100948.92
2023-01-27T12:43:12.608Z,100946.11
2023-01-27T12:46:09.942Z,100947.33
2023-01-27T12:49:09.770Z,100952.04
2023-01-27T12:51:54.791Z,100945.58
2023-01-27T12:54:40.080Z,100947.89
2023-01-27T12:57:32.378Z,100947.02
2023-01-27T13:00:17.677Z,100955.63
2023-01-27T13:03:05.904Z,100956.84
2023-01-27T13:05:54.993Z,100956.81
2023-01-27T13:08:40.263Z,100959.63
2023-01-27T13:11:39.436Z,100962.28
2023-01-27T13:14:29.786Z,100958.77
2023-01-27T13:17:36.372Z,100962.09
2023-01-27T13:20:43.541Z,100964.02
2023-01-27T13:23:34.315Z,100972.58
2023-01-27T13:26:20.633Z,100984.51
2023-01-27T13:29:08.517Z,100987.98
2023-01-27T13:32:19.919Z,100987.09
2023-01-27T13:35:23.461Z,100992.48
2023-01-27T13:38:18.892Z,100991.74
2023-01-27T13:41:14.919Z,100999.10
2023-01-27T13:44:06.503Z,100998.36
2023-01-27T13:46:54.131Z,101001.86
2023-01-27T13:49:43.338Z,101009.59
2023-01-27T13:52:28.764Z,101016.96
2023-01-27T13:55:14.460Z,101016.11
2023-01-27T13:58:21.150Z,101018.98
2023-01-27T14:01:24.439Z,101018.33
2023-01-27T14:04:12.559Z,101020.09
2023-01-27T14:07:13.304Z,101020.11
2023-01-27T14:10:07.574Z,101018.73
2023-01-27T14:13:14.169Z,101020.87
2023-01-27T14:16:17.763Z,101023.34
2023-01-27T14:19:15.261Z,101023.20
2023-01-27T14:22:24.460Z,101025.31
2023-01-27T14:25:12.558Z,101027.92
2023-01-27T14:28:19.102Z,101034.39
2023-01-27T14:31:14.040Z,101034.36
2023-01-27T14:34:24.708Z,101036.95
2023-01-27T14:37:37.120Z,101037.41
2023-01-27T14:40:38.060Z,101041.89
2023-01-27T14:43:38.700Z,101046.06
2023-01-27T14:46:36.193Z,101042.71
2023-01-27T14:49:27.267Z,101042.33
2023-01-27T14:52:43.659Z,101039.70
2023-01-27T14:56:04.080Z,101039.13
2023-01-27T14:59:02.748Z,101033.70
2023-01-27T15:01:56.698Z,101034.72
2023-01-27T15:04:44.464Z,101038.77
2023-01-27T15:07:45.513Z,101039.84
2023-01-27T15:10:31.550Z,101045.95
2023-01-27T15:13:35.310Z,101047.02
2023-01-27T15:16:37.144Z,101045.25
2023-01-27T15:19:50.100Z,101046.65
2023-01-27T15:22:53.314Z,101050.86
2023-01-27T15:25:48.518Z,101052.05
2023-01-27T15:28:38.283Z,101057.14
2023-01-27T15:31:28.536Z,101061.88
2023-01-27T15:34:15.362Z,101062.08
2023-01-27T15:37:02.882Z,101060.85
2023-01-27T15:40:14.994Z,101067.48
2023-01-27T15:42:59.826Z,101070.48
2023-01-27T15:45:45.925Z,101067.15
2023-01-27T15:48:33.487Z,101070.46
2023-01-27T15:51:20.720Z,101071.88
2023-01-27T15:54:13.266Z,101069.23
2023-01-27T15:57:02.863Z,101074.67
2023-01-27T15:59:58.354Z,101079.24
2023-01-27T16:02:46.187Z,101080.44
2023-01-27T16:05:36.921Z,101075.02
2023-01-27T16:08:22.224Z,101076.58
2023-01-27T16:11:26.284Z,101080.96
2023-01-27T16:14:11.325Z,101080.46
2023-01-27T16:16:56.243Z,101081.38
2023-01-27T16:19:52.037Z,101078.54
2023-01-27T16:22:38.638Z,101075.79
2023-01-27T16:25:36.077Z,101080.75
2023-01-27T16:28:25.497Z,101078.52
2023-01-27T16:31:18.165Z,101079.60
2023-01-27T16:34:05.317Z,101080.30
2023-01-27T16:37:00.344Z,101082.23
2023-01-27T16:39:49.200Z,101087.53
2023-01-27T16:42:56.994Z,80870.92
2023-01-27T16:49:18.106Z,33695.82
2023-01-27T16:53:33.993Z,50546.86
2023-01-27T17:04:20.148Z,50546.86
2023-01-27T17:12:28.770Z,-1.00
2023-01-27T17:19:04.986Z,-1.00
2023-01-27T17:30:46.106Z,-1.00
2023-01-27T17:40:11.559Z,101101.18
2023-01-27T17:48:04.436Z,33700.42
2023-01-27T17:59:43.491Z,-1.00
2023-01-27T18:09:54.691Z,-1.00
2023-01-27T18:20:33.189Z,-1.00
2023-01-27T18:28:31.397Z,-1.00
2023-01-27T18:35:01.996Z,-1.00
2023-01-27T18:46:40.318Z,-1.00
2023-01-27T18:56:47.553Z,-1.00
2023-01-27T19:07:16.088Z,-1.00
2023-01-27T19:15:13.258Z,-1.00
2023-01-27T19:21:43.970Z,-1.00
2023-01-27T19:33:23.030Z,-1.00
2023-01-27T19:43:29.959Z,-1.00
2023-01-27T19:53:54.685Z,-1.00
2023-01-27T20:01:46.299Z,-1.00
2023-01-27T20:08:18.019Z,-1.00
2023-01-27T20:19:56.334Z,-1.00
